Time;durP1;ratioP1;P1;durP2;ratioP2;P2;SDS_P1;SDS_P2;PMS_P1;PMS_P2;Temp;Humidity;BMP_temperature;BMP_pressure;BME280_temperature;BME280_humidity;BME280_pressure;Samples;Min_cycle;Max_cycle;Signal;HPM_P1;HPM_P2
2023/07/27 00:01:39;;;;;;;5.00;2.63;;;;;;;13.58;100.00;100812.56;6276961;28;20056;-76
2023/07/27 00:04:41;;;;;;;7.13;2.28;;;;;;;13.64;100.00;100808.69;6276324;28;20456;-76
2023/07/27 00:07:42;;;;;;;5.07;2.40;;;;;;;13.62;100.00;100807.91;6270378;28;20049;-76
2023/07/27 00:10:45;;;;;;;6.90;2.30;;;;;;;13.60;100.00;100805.38;6276594;28;20445;-76
2023/07/27 00:13:46;;;;;;;5.30;2.30;;;;;;;13.57;100.00;100802.94;6276311;28;20044;-76
2023/07/27 00:16:48;;;;;;;3.58;2.53;;;;;;;13.60;100.00;100805.38;6276365;28;20051;-76
2023/07/27 00:19:49;;;;;;;4.32;2.45;;;;;;;13.64;100.00;100796.31;6284700;28;20048;-76
2023/07/27 00:22:51;;;;;;;6.95;2.67;;;;;;;13.64;100.00;100793.66;6275886;28;20060;-76
2023/07/27 00:25:53;;;;;;;8.38;2.53;;;;;;;13.64;100.00;100792.84;6276476;28;20060;-76
2023/07/27 00:28:55;;;;;;;6.85;2.42;;;;;;;13.69;100.00;100788.09;6276104;28;20053;-76
2023/07/27 00:31:56;;;;;;;6.40;2.50;;;;;;;13.68;100.00;100781.97;6275994;28;20080;-77
2023/07/27 00:34:58;;;;;;;5.80;3.17;;;;;;;13.69;100.00;100785.44;6275915;28;20045;-76
2023/07/27 00:37:59;;;;;;;4.72;2.42;;;;;;;13.64;100.00;100790.19;6275871;28;20342;-76
2023/07/27 00:41:02;;;;;;;5.28;2.75;;;;;;;13.66;100.00;100780.34;6284389;28;20049;-76
2023/07/27 00:44:03;;;;;;;8.43;3.10;;;;;;;13.68;100.00;100770.56;6275497;28;20045;-76
2023/07/27 00:47:06;;;;;;;5.55;3.03;;;;;;;13.62;100.00;100770.94;6275918;28;20048;-76
2023/07/27 00:50:08;;;;;;;5.38;3.10;;;;;;;13.57;100.00;100768.59;6275758;28;20049;-76
2023/07/27 00:53:10;;;;;;;5.55;2.90;;;;;;;13.55;100.00;100762.59;6283614;28;20041;-76
2023/07/27 00:56:13;;;;;;;5.55;2.85;;;;;;;13.47;100.00;100754.31;6275487;28;20037;-76
2023/07/27 00:59:15;;;;;;;6.45;3.38;;;;;;;13.47;100.00;100748.19;6275779;28;20041;-76
2023/07/27 01:02:17;;;;;;;5.10;2.75;;;;;;;13.40;100.00;100747.75;6275277;28;20052;-76
2023/07/27 01:05:18;;;;;;;4.40;2.72;;;;;;;13.36;100.00;100751.53;6276088;28;20044;-76
2023/07/27 01:08:20;;;;;;;8.50;3.15;;;;;;;13.36;100.00;100744.47;6275091;28;20049;-76
2023/07/27 01:11:32;;;;;;;5.82;2.97;;;;;;;13.38;100.00;100739.91;6274992;28;20460;-76
2023/07/27 01:14:41;;;;;;;6.07;3.15;;;;;;;13.43;100.00;100735.19;6275038;28;20049;-76
2023/07/27 01:17:48;;;;;;;5.72;3.17;;;;;;;13.45;100.00;100732.47;6275507;28;20123;-76
2023/07/27 01:20:58;;;;;;;5.38;3.03;;;;;;;13.44;100.00;100718.41;6283620;28;20048;-76
2023/07/27 01:24:33;;;;;;;4.10;2.47;;;;;;;13.49;100.00;100714.59;6274990;28;20045;-76
2023/07/27 01:27:49;;;;;;;5.30;2.63;;;;;;;13.51;100.00;100705.66;6275015;28;20433;-76
2023/07/27 01:30:53;;;;;;;5.95;3.25;;;;;;;13.49;100.00;100706.69;6275163;28;20053;-76
2023/07/27 01:34:00;;;;;;;7.95;3.08;;;;;;;13.52;100.00;100704.69;6274699;28;20048;-76
2023/07/27 01:37:05;;;;;;;5.78;2.80;;;;;;;13.52;100.00;100703.84;6275054;28;20058;-76
2023/07/27 01:40:10;;;;;;;7.65;3.05;;;;;;;13.53;100.00;100695.81;6275281;28;20049;-76
2023/07/27 01:43:13;;;;;;;5.22;3.22;;;;;;;13.57;100.00;100693.81;6274406;28;20057;-76
2023/07/27 01:46:18;;;;;;;8.27;3.50;;;;;;;13.62;100.00;100699.63;6283117;28;20041;-76
2023/07/27 01:49:20;;;;;;;8.57;3.88;;;;;;;13.65;100.00;100687.09;6275042;28;20111;-76
2023/07/27 01:52:24;;;;;;;8.23;4.25;;;;;;;13.71;100.00;100693.75;6279732;28;20044;-76
2023/07/27 01:55:25;;;;;;;8.77;4.10;;;;;;;13.70;100.00;100689.41;6277539;28;20048;-76
2023/07/27 01:58:28;;;;;;;6.35;3.28;;;;;;;13.72;100.00;100690.19;6274634;28;20440;-76
2023/07/27 02:01:31;;;;;;;7.00;2.97;;;;;;;13.78;100.00;100681.00;6274907;28;20045;-76
2023/07/27 02:04:33;;;;;;;6.38;3.78;;;;;;;13.81;100.00;100675.50;6274358;28;20041;-76
2023/07/27 02:07:35;;;;;;;5.35;2.97;;;;;;;13.78;100.00;100676.53;6274515;28;20441;-76
2023/07/27 02:10:40;;;;;;;6.75;3.30;;;;;;;13.75;100.00;100671.47;6274558;28;20041;-76
2023/07/27 02:13:46;;;;;;;9.23;4.13;;;;;;;13.72;100.00;100671.69;6274099;28;20045;-76
2023/07/27 02:16:55;;;;;;;6.05;3.83;;;;;;;13.72;100.00;100671.69;6274557;28;20045;-76
2023/07/27 02:19:58;;;;;;;8.57;3.65;;;;;;;13.68;100.00;100670.19;6274425;28;20080;-76
2023/07/27 02:23:02;;;;;;;7.38;4.28;;;;;;;13.69;100.00;100663.97;6277860;28;20360;-76
2023/07/27 02:26:03;;;;;;;9.27;4.28;;;;;;;13.71;100.00;100660.25;6278497;28;20055;-74
2023/07/27 02:29:05;;;;;;;8.02;4.43;;;;;;;13.73;100.00;100662.81;6279089;28;20053;-74
2023/07/27 02:32:08;;;;;;;8.32;4.10;;;;;;;13.73;100.00;100659.31;6278653;28;20045;-74
2023/07/27 02:35:10;;;;;;;10.18;3.85;;;;;;;13.73;100.00;100660.16;6278903;28;20045;-74
2023/07/27 02:38:11;;;;;;;8.95;4.43;;;;;;;13.70;100.00;100657.72;6278829;28;20429;-74
2023/07/27 02:41:13;;;;;;;7.68;4.28;;;;;;;13.69;100.00;100650.75;6278881;28;20147;-74
2023/07/27 02:44:14;;;;;;;7.07;3.65;;;;;;;13.69;100.00;100648.97;6267722;28;20048;-74
2023/07/27 02:47:18;;;;;;;6.05;4.13;;;;;;;13.68;100.00;100643.78;6278654;28;20048;-74
2023/07/27 02:50:19;;;;;;;11.77;4.30;;;;;;;13.65;100.00;100639.56;6277736;28;20353;-74
2023/07/27 02:53:21;;;;;;;7.25;3.95;;;;;;;13.64;100.00;100631.75;6278347;28;20052;-74
2023/07/27 02:56:24;;;;;;;11.25;4.05;;;;;;;13.62;100.00;100637.09;6278312;28;20124;-75
2023/07/27 02:59:25;;;;;;;6.93;3.22;;;;;;;13.62;100.00;100623.91;6278549;28;20052;-74
2023/07/27 03:02:28;;;;;;;8.73;3.80;;;;;;;13.64;100.00;100629.94;6278143;28;20111;-74
2023/07/27 03:05:29;;;;;;;6.72;3.53;;;;;;;13.60;100.00;100631.09;6276287;28;20049;-74
2023/07/27 03:08:31;;;;;;;10.20;4.30;;;;;;;13.59;100.00;100621.50;6278156;28;20052;-74
2023/07/27 03:11:33;;;;;;;8.15;3.65;;;;;;;13.58;100.00;100619.81;6277904;28;20052;-74
2023/07/27 03:14:34;;;;;;;5.47;3.63;;;;;;;13.60;100.00;100622.34;6277736;28;20045;-74
2023/07/27 03:17:37;;;;;;;7.55;4.05;;;;;;;13.58;100.00;100614.53;6277811;28;20353;-74
2023/07/27 03:20:39;;;;;;;8.48;4.20;;;;;;;13.57;100.00;100614.63;6278037;28;20041;-74
2023/07/27 03:23:41;;;;;;;7.32;3.70;;;;;;;13.53;100.00;100615.75;6277277;28;20049;-75
2023/07/27 03:26:42;;;;;;;6.70;3.65;;;;;;;13.56;100.00;100612.94;6285556;28;20044;-74
2023/07/27 03:29:44;;;;;;;9.27;4.32;;;;;;;13.55;100.00;100596.25;6278070;28;20052;-74
2023/07/27 03:32:46;;;;;;;8.07;3.80;;;;;;;13.57;100.00;100593.50;6276892;28;20044;-74
2023/07/27 03:35:48;;;;;;;9.43;4.22;;;;;;;13.53;100.00;100597.28;6269485;28;20127;-74
2023/07/27 03:38:49;;;;;;;6.63;4.05;;;;;;;13.53;100.00;100589.38;6277337;28;20052;-74
2023/07/27 03:41:50;;;;;;;8.82;4.15;;;;;;;13.57;100.00;100590.84;6275228;28;20060;-74
2023/07/27 03:44:52;;;;;;;9.90;3.80;;;;;;;13.60;100.00;100586.22;6254817;28;20056;-75
2023/07/27 03:47:55;;;;;;;8.10;3.90;;;;;;;13.60;100.00;100585.38;6256630;28;20578;-76
2023/07/27 03:51:00;;;;;;;8.82;3.53;;;;;;;13.61;100.00;100579.13;6265623;28;20049;-75
2023/07/27 03:54:01;;;;;;;7.20;3.70;;;;;;;13.63;100.00;100575.44;6255619;28;20048;-74
2023/07/27 03:57:03;;;;;;;6.78;3.67;;;;;;;13.70;100.00;100575.84;6257905;28;20110;-74
2023/07/27 04:00:06;;;;;;;7.28;3.92;;;;;;;13.71;100.00;100582.81;6256172;28;20057;-74
2023/07/27 04:03:08;;;;;;;7.40;4.13;;;;;;;13.77;100.00;100571.00;6258720;28;20060;-74
2023/07/27 04:06:10;;;;;;;7.70;3.55;;;;;;;13.80;100.00;100562.84;6257772;28;20488;-74
2023/07/27 04:09:11;;;;;;;7.25;3.83;;;;;;;13.78;100.00;100559.50;6255490;28;20044;-74
2023/07/27 04:12:13;;;;;;;8.20;3.97;;;;;;;13.80;100.00;100549.66;6258277;28;20044;-74
2023/07/27 04:15:14;;;;;;;7.22;3.85;;;;;;;13.83;100.00;100541.50;6255300;28;20036;-74
2023/07/27 04:18:17;;;;;;;5.10;3.30;;;;;;;13.86;100.00;100547.44;6256856;28;20497;-74
2023/07/27 04:21:18;;;;;;;6.07;3.50;;;;;;;13.89;100.00;100546.34;6255950;28;20041;-75
2023/07/27 04:24:20;;;;;;;7.25;3.97;;;;;;;13.91;100.00;100553.25;6262088;28;20044;-74
2023/07/27 04:27:21;;;;;;;7.10;3.78;;;;;;;13.89;100.00;100565.69;6255953;28;20041;-75
2023/07/27 04:30:22;;;;;;;6.80;3.33;;;;;;;13.92;100.00;100559.38;6259052;28;20256;-74
2023/07/27 04:33:25;;;;;;;5.40;3.53;;;;;;;13.94;100.00;100554.81;6255617;28;20052;-75
2023/07/27 04:36:26;;;;;;;7.47;4.00;;;;;;;13.92;100.00;100554.91;6254630;28;20044;-74
2023/07/27 04:39:28;;;;;;;8.55;3.53;;;;;;;13.95;100.00;100559.16;6258679;28;20049;-75
2023/07/27 04:42:29;;;;;;;8.00;4.10;;;;;;;13.95;100.00;100557.34;6261217;28;20052;-74
2023/07/27 04:45:31;;;;;;;6.07;3.60;;;;;;;13.96;100.00;100559.03;6283080;28;20472;-74
2023/07/27 04:48:33;;;;;;;7.63;3.90;;;;;;;13.98;100.00;100558.06;6275911;28;20041;-74
2023/07/27 04:51:35;;;;;;;6.28;3.33;;;;;;;14.00;100.00;100559.69;6275574;28;20059;-74
2023/07/27 04:54:36;;;;;;;6.10;2.83;;;;;;;14.02;100.00;100572.75;6275522;28;20037;-74
2023/07/27 04:57:38;;;;;;;9.15;3.95;;;;;;;13.98;100.00;100564.19;6282373;28;20049;-74
2023/07/27 05:00:39;;;;;;;8.82;3.30;;;;;;;13.99;100.00;100565.03;6277071;28;20045;-74
2023/07/27 05:03:42;;;;;;;7.88;3.20;;;;;;;14.06;100.00;100568.97;6275004;28;20045;-74
2023/07/27 05:06:43;;;;;;;6.20;3.17;;;;;;;14.07;100.00;100560.06;6275616;28;20484;-74
2023/07/27 05:09:45;;;;;;;6.65;3.13;;;;;;;14.07;100.00;100558.28;6275343;28;20052;-74
2023/07/27 05:12:46;;;;;;;7.95;3.90;;;;;;;13.98;100.00;100560.72;6275155;28;20048;-74
2023/07/27 05:15:47;;;;;;;9.02;3.80;;;;;;;14.00;100.00;100559.69;6275310;28;20041;-74
2023/07/27 05:18:50;;;;;;;5.03;3.10;;;;;;;13.96;100.00;100550.28;6275268;28;20045;-74
2023/07/27 05:21:52;;;;;;;7.97;3.13;;;;;;;13.98;100.00;100535.16;6275111;28;20049;-75
2023/07/27 05:24:53;;;;;;;3.92;2.78;;;;;;;14.00;100.00;100535.91;6273574;28;20053;-75
2023/07/27 05:27:54;;;;;;;6.50;3.63;;;;;;;14.05;100.00;100538.22;6275094;28;20053;-75
2023/07/27 05:30:56;;;;;;;10.18;2.95;;;;;;;14.01;100.00;100536.72;6275066;28;20068;-75
2023/07/27 05:33:58;;;;;;;5.80;3.58;;;;;;;14.02;100.00;100541.06;6274652;28;20052;-75
2023/07/27 05:37:00;;;;;;;6.65;3.50;;;;;;;14.01;100.00;100534.94;6274937;28;20045;-75
2023/07/27 05:40:01;;;;;;;6.95;3.20;;;;;;;14.00;100.00;100537.69;6276862;28;20460;-75
2023/07/27 05:43:03;;;;;;;6.80;3.13;;;;;;;14.05;100.00;100548.78;6281008;28;20045;-75
2023/07/27 05:46:04;;;;;;;9.75;3.75;;;;;;;14.04;100.00;100540.00;6283095;28;20377;-75
2023/07/27 05:49:07;;;;;;;7.00;3.17;;;;;;;14.03;100.00;100540.09;6283096;28;20080;-75
2023/07/27 05:52:08;;;;;;;7.85;4.07;;;;;;;14.03;100.00;100533.00;6274578;28;20053;-75
2023/07/27 05:55:10;;;;;;;4.25;3.10;;;;;;;14.07;100.00;100534.47;6284055;28;20052;-75
2023/07/27 05:58:11;;;;;;;10.50;3.60;;;;;;;14.14;100.00;100538.38;6279751;28;20049;-75
2023/07/27 06:01:13;;;;;;;6.15;3.72;;;;;;;14.16;100.00;100530.34;6279824;28;20045;-75
2023/07/27 06:04:16;;;;;;;5.55;3.55;;;;;;;14.18;100.00;100539.88;6278826;28;20049;-75
2023/07/27 06:07:18;;;;;;;8.50;3.90;;;;;;;14.18;100.00;100531.09;6279584;28;20048;-75
2023/07/27 06:10:19;;;;;;;10.13;4.05;;;;;;;14.19;100.00;100528.34;6279448;28;20052;-75
2023/07/27 06:13:21;;;;;;;8.07;4.57;;;;;;;14.20;100.00;100530.00;6279279;28;20060;-75
2023/07/27 06:16:24;;;;;;;10.27;3.45;;;;;;;14.23;100.00;100522.84;6286309;28;20048;-75
2023/07/27 06:19:26;;;;;;;6.93;3.70;;;;;;;14.21;100.00;100521.13;6279148;28;20048;-76
2023/07/27 06:22:28;;;;;;;6.45;3.42;;;;;;;14.26;100.00;100520.81;6278645;28;20045;-75
2023/07/27 06:25:29;;;;;;;8.05;4.10;;;;;;;14.24;100.00;100519.22;6279088;28;20052;-75
2023/07/27 06:28:30;;;;;;;6.95;3.47;;;;;;;14.28;100.00;100512.78;6284644;28;20045;-75
2023/07/27 06:31:32;;;;;;;5.35;3.15;;;;;;;14.31;100.00;100523.13;6281405;28;20460;-75
2023/07/27 06:34:35;;;;;;;6.85;3.38;;;;;;;14.33;100.00;100508.81;6278653;28;20041;-75
2023/07/27 06:37:36;;;;;;;8.18;2.92;;;;;;;14.36;100.00;100505.97;6278169;28;20051;-75
2023/07/27 06:40:38;;;;;;;6.63;2.85;;;;;;;14.38;100.00;100506.69;6278867;28;20123;-74
2023/07/27 06:43:39;;;;;;;8.57;3.58;;;;;;;14.41;100.00;100505.63;6278156;28;20060;-75
2023/07/27 06:46:41;;;;;;;7.47;3.30;;;;;;;14.47;100.00;100505.19;6278786;28;20041;-74
2023/07/27 06:49:43;;;;;;;5.53;3.50;;;;;;;14.46;100.00;100501.69;6278566;28;20425;-74
2023/07/27 06:52:45;;;;;;;6.60;3.35;;;;;;;14.46;100.00;100500.84;6278130;28;20068;-74
2023/07/27 06:55:46;;;;;;;5.18;3.50;;;;;;;14.52;100.00;100496.94;6278534;28;20045;-74
2023/07/27 06:58:48;;;;;;;7.00;3.22;;;;;;;14.52;100.00;100503.06;6278565;28;20056;-74
2023/07/27 07:01:49;;;;;;;7.63;3.55;;;;;;;14.55;100.00;100494.91;6268183;28;20048;-75
2023/07/27 07:04:52;;;;;;;5.75;3.60;;;;;;;14.57;100.00;100494.78;6277616;28;20059;-75
2023/07/27 07:07:54;;;;;;;8.00;3.67;;;;;;;14.59;100.00;100491.09;6277193;28;20056;-75
2023/07/27 07:10:55;;;;;;;5.53;3.15;;;;;;;14.63;100.00;100492.56;6277825;28;20342;-75
2023/07/27 07:13:56;;;;;;;10.70;3.08;;;;;;;14.66;100.00;100488.81;6277423;28;20127;-74
2023/07/27 07:16:58;;;;;;;6.10;3.47;;;;;;;14.66;100.00;100480.88;6265934;28;20058;-75
2023/07/27 07:20:04;;;;;;;7.20;3.63;;;;;;;14.69;100.00;100481.50;6262648;28;20128;-75
2023/07/27 07:23:06;;;;;;;6.00;3.63;;;;;;;14.64;100.00;100486.31;6265911;28;20057;-75
2023/07/27 07:26:07;;;;;;;7.88;3.25;;;;;;;14.68;100.00;100479.81;6265457;28;20175;-75
2023/07/27 07:29:09;;;;;;;6.05;3.42;;;;;;;14.69;100.00;100460.34;6277609;28;20527;-75
2023/07/27 07:32:11;;;;;;;5.00;3.10;;;;;;;14.75;100.00;100460.84;6275097;28;20049;-75
2023/07/27 07:35:14;;;;;;;6.22;3.50;;;;;;;14.75;100.00;100469.63;6264210;28;20044;-76
2023/07/27 07:38:15;;;;;;;5.65;3.08;;;;;;;14.79;100.00;100455.19;6277167;28;20349;-76
2023/07/27 07:41:17;;;;;;;5.20;3.20;;;;;;;14.85;100.00;100453.88;6276854;28;20155;-75
2023/07/27 07:44:18;;;;;;;6.65;2.97;;;;;;;14.83;100.00;100447.88;6276867;28;20049;-75
2023/07/27 07:47:19;;;;;;;6.70;3.67;;;;;;;14.86;100.00;100445.84;6277212;28;20041;-75
2023/07/27 07:50:24;;;;;;;6.78;4.38;;;;;;;14.89;100.00;100442.94;6280042;28;20045;-75
2023/07/27 07:53:25;;;;;;;5.97;2.97;;;;;;;14.93;100.00;100439.13;6268045;28;20052;-76
2023/07/27 07:56:26;;;;;;;6.82;3.42;;;;;;;14.97;100.00;100423.84;6276605;28;20452;-76
2023/07/27 07:59:28;;;;;;;6.57;3.40;;;;;;;15.00;100.00;100418.34;6269869;28;20390;-76
2023/07/27 08:02:29;;;;;;;6.40;3.47;;;;;;;15.08;100.00;100421.25;6275477;28;20045;-75
2023/07/27 08:05:32;;;;;;;8.43;3.78;;;;;;;15.11;100.00;100413.03;6276141;28;20651;-74
2023/07/27 08:08:33;;;;;;;7.43;3.08;;;;;;;15.08;100.00;100404.50;6271643;28;20053;-75
2023/07/27 08:11:35;;;;;;;9.00;4.10;;;;;;;15.08;100.00;100409.78;6284426;28;20486;-75
2023/07/27 08:14:36;;;;;;;4.93;3.17;;;;;;;15.10;100.00;100408.72;6284109;28;20052;-74
2023/07/27 08:17:38;;;;;;;5.15;3.30;;;;;;;15.14;100.00;100406.69;6275631;28;20337;-74
2023/07/27 08:20:40;;;;;;;6.40;3.50;;;;;;;15.16;100.00;100394.16;6275747;28;20052;-75
2023/07/27 08:23:42;;;;;;;11.13;3.80;;;;;;;15.23;100.00;100387.44;6276799;28;20426;-75
2023/07/27 08:26:43;;;;;;;11.65;4.22;;;;;;;15.21;100.00;100379.63;6265531;28;20052;-75
2023/07/27 08:29:45;;;;;;;9.20;3.72;;;;;;;15.29;100.00;100373.69;6272363;28;20049;-75
2023/07/27 08:32:47;;;;;;;4.93;3.28;;;;;;;15.35;100.00;100364.41;6275841;28;20052;-74
2023/07/27 08:35:50;;;;;;;8.38;3.53;;;;;;;15.39;100.00;100349.97;6275686;28;20056;-75
2023/07/27 08:38:51;;;;;;;7.80;3.53;;;;;;;15.41;100.00;100351.56;6275599;28;20049;-75
2023/07/27 08:41:53;;;;;;;9.10;3.75;;;;;;;15.46;100.00;100344.06;6269734;28;20052;-74
2023/07/27 08:44:55;;;;;;;6.10;3.20;;;;;;;15.47;100.00;100345.75;6266791;28;20048;-74
2023/07/27 08:47:57;;;;;;;7.35;3.55;;;;;;;15.50;100.00;100342.03;6275428;28;20049;-75
2023/07/27 08:51:00;;;;;;;4.57;3.17;;;;;;;15.59;100.00;100341.28;6275341;28;20048;-74
2023/07/27 08:54:01;;;;;;;7.70;3.42;;;;;;;15.62;100.00;100337.53;6275204;28;20049;-75
2023/07/27 08:57:03;;;;;;;5.15;3.00;;;;;;;15.67;100.00;100336.25;6271433;28;20064;-74
2023/07/27 09:00:05;;;;;;;7.10;3.13;;;;;;;15.70;100.00;100333.34;6260980;28;20045;-76
2023/07/27 09:03:07;;;;;;;4.78;2.95;;;;;;;15.70;100.00;100338.63;6274975;28;20053;-74
2023/07/27 09:06:10;;;;;;;6.13;2.70;;;;;;;15.77;100.00;100339.00;6275254;28;20049;-74
2023/07/27 09:09:13;;;;;;;7.05;3.22;;;;;;;15.86;100.00;100335.59;6275253;28;20434;-75
2023/07/27 09:12:18;;;;;;;4.80;2.95;;;;;;;15.88;100.00;100336.28;6274862;28;20044;-74
2023/07/27 09:15:19;;;;;;;5.78;3.50;;;;;;;15.92;100.00;100337.72;6271779;28;20425;-76
2023/07/27 09:18:21;;;;;;;7.43;3.30;;;;;;;15.98;100.00;100323.94;6268313;28;20052;-76
2023/07/27 09:21:24;;;;;;;9.15;2.90;;;;;;;15.95;100.00;100332.19;6273829;28;20041;-77
2023/07/27 09:24:25;;;;;;;4.85;2.40;;;;;;;16.01;100.00;100322.88;6274607;28;20045;-76
2023/07/27 09:27:26;;;;;;;4.20;2.83;;;;;;;16.06;100.00;100320.69;6271766;28;20605;-76
2023/07/27 09:30:28;;;;;;;6.15;2.92;;;;;;;16.08;100.00;100313.47;6266029;28;20047;-75
2023/07/27 09:33:29;;;;;;;4.32;2.35;;;;;;;16.12;100.00;100309.56;6271870;28;20056;-75
2023/07/27 09:36:33;;;;;;;4.88;2.67;;;;;;;16.06;100.00;100296.81;6272665;28;20527;-75
2023/07/27 09:39:37;;;;;;;4.80;2.70;;;;;;;16.11;100.00;100299.94;6274768;28;20056;-74
2023/07/27 09:42:40;;;;;;;6.28;2.33;;;;;;;16.02;100.00;100298.03;6282296;28;20388;-76
2023/07/27 09:45:41;;;;;;;3.47;2.60;;;;;;;15.91;100.00;100304.25;6265203;28;20713;-76
2023/07/27 09:48:43;;;;;;;4.88;2.30;;;;;;;16.00;100.00;100296.50;6269658;28;20052;-75
2023/07/27 09:51:46;;;;;;;8.00;2.70;;;;;;;16.02;100.00;100300.69;6274868;28;20082;-76
2023/07/27 09:54:48;;;;;;;4.90;3.33;;;;;;;15.95;100.00;100296.88;6273427;28;20461;-75
2023/07/27 09:57:52;;;;;;;4.65;2.47;;;;;;;15.85;100.00;100296.81;6274640;28;20055;-76
2023/07/27 10:00:53;;;;;;;6.22;2.80;;;;;;;15.83;100.00;100293.44;6273112;28;20469;-76
2023/07/27 10:03:57;;;;;;;4.32;2.72;;;;;;;15.80;100.00;100291.03;6274110;28;20056;-77
2023/07/27 10:07:00;;;;;;;6.60;2.95;;;;;;;15.66;100.00;100278.06;6264857;28;20202;-76
2023/07/27 10:10:24;;;;;;;2.80;2.03;;;;;;;15.64;100.00;100272.91;6274487;28;20060;-76
2023/07/27 10:13:37;;;;;;;3.97;2.42;;;;;;;15.75;100.00;100260.59;6272122;28;20045;-75
2023/07/27 10:16:39;;;;;;;6.60;2.90;;;;;;;15.64;100.00;100258.84;6274414;28;20049;-74
2023/07/27 10:19:43;;;;;;;4.53;2.92;;;;;;;15.69;100.00;100259.28;6276661;28;20045;-74
2023/07/27 10:22:51;;;;;;;4.28;2.70;;;;;;;15.71;100.00;100260.84;6275609;28;20345;-74
2023/07/27 10:26:05;;;;;;;5.50;2.53;;;;;;;15.67;100.00;100259.44;6273273;28;20349;-75
2023/07/27 10:29:14;;;;;;;3.78;2.30;;;;;;;15.65;100.00;100252.56;6271438;28;20037;-75
2023/07/27 10:32:16;;;;;;;5.88;2.60;;;;;;;15.70;100.00;100260.97;6266933;28;20127;-74
2023/07/27 10:35:17;;;;;;;3.47;2.42;;;;;;;15.76;100.00;100251.66;6272951;28;20053;-74
2023/07/27 10:38:23;;;;;;;5.75;2.65;;;;;;;15.72;100.00;100243.16;6273618;28;20052;-74
2023/07/27 10:41:26;;;;;;;3.67;2.58;;;;;;;15.70;100.00;100239.78;6271695;28;20045;-75
2023/07/27 10:44:27;;;;;;;5.68;3.05;;;;;;;15.70;100.00;100232.66;6277960;28;20049;-74
2023/07/27 10:47:36;;;;;;;3.55;2.15;;;;;;;15.73;100.00;100231.56;6272041;28;20055;-74
2023/07/27 10:50:39;;;;;;;5.88;3.17;;;;;;;15.76;100.00;100227.81;6278214;28;20452;-74
2023/07/27 10:53:42;;;;;;;4.63;3.08;;;;;;;15.77;100.00;100224.22;6277957;28;20049;-74
2023/07/27 10:56:44;;;;;;;5.18;3.00;;;;;;;15.82;100.00;100222.88;6271392;28;20045;-74
2023/07/27 10:59:47;;;;;;;4.10;2.90;;;;;;;15.85;100.00;100219.09;6277581;28;20051;-75
2023/07/27 11:02:49;;;;;;;4.18;2.85;;;;;;;15.82;100.00;100217.56;6278127;28;20573;-74
2023/07/27 11:06:02;;;;;;;3.90;2.55;;;;;;;15.81;100.00;100215.06;6278134;28;20045;-75
2023/07/27 11:09:10;;;;;;;8.18;3.00;;;;;;;15.84;100.00;100212.13;6278491;28;20052;-74
2023/07/27 11:12:11;;;;;;;5.70;2.47;;;;;;;15.81;100.00;100209.75;6277796;28;20095;-75
2023/07/27 11:15:17;;;;;;;6.50;2.83;;;;;;;15.80;100.00;100200.09;6277942;28;20056;-75
2023/07/27 11:18:21;;;;;;;4.07;2.78;;;;;;;15.84;100.00;100198.88;6277990;28;20045;-74
2023/07/27 11:21:23;;;;;;;3.78;2.17;;;;;;;15.87;100.00;100195.97;6278009;28;20123;-75
2023/07/27 11:24:26;;;;;;;7.47;2.50;;;;;;;15.87;100.00;100203.94;6280882;28;20061;-75
2023/07/27 11:27:27;;;;;;;6.53;2.50;;;;;;;15.88;100.00;100195.00;6263438;28;20046;-75
2023/07/27 11:30:29;;;;;;;3.65;2.58;;;;;;;15.83;100.00;100191.91;6266326;28;20095;-75
2023/07/27 11:33:33;;;;;;;3.90;2.30;;;;;;;15.84;100.00;100190.94;6277000;28;20049;-75
2023/07/27 11:36:34;;;;;;;5.28;2.90;;;;;;;15.89;100.00;100188.72;6277222;28;20361;-76
2023/07/27 11:39:37;;;;;;;5.28;2.60;;;;;;;15.94;100.00;100187.41;6277367;28;20049;-75
2023/07/27 11:42:39;;;;;;;4.13;2.50;;;;;;;15.99;100.00;100179.06;6277052;28;20079;-75
2023/07/27 11:45:41;;;;;;;4.57;2.70;;;;;;;16.07;100.00;100178.38;6283170;28;20052;-75
2023/07/27 11:48:42;;;;;;;3.67;2.50;;;;;;;16.06;100.00;100160.78;6279328;28;20047;-75
2023/07/27 11:51:46;;;;;;;8.40;3.00;;;;;;;16.10;100.00;100159.56;6288846;22;20041;-74
2023/07/27 11:54:53;;;;;;;3.38;2.35;;;;;;;16.13;100.00;100161.97;6272026;28;20041;-73
2023/07/27 11:57:55;;;;;;;7.47;3.03;;;;;;;16.21;100.00;100164.78;6275780;28;20049;-74
2023/07/27 12:00:56;;;;;;;4.40;2.42;;;;;;;16.30;100.00;100160.50;6271964;28;20338;-74
2023/07/27 12:03:58;;;;;;;4.32;2.80;;;;;;;16.29;100.00;100148.22;6260489;28;20047;-74
2023/07/27 12:06:59;;;;;;;4.10;2.53;;;;;;;16.23;100.00;100149.59;6276505;28;20438;-74
2023/07/27 12:10:02;;;;;;;3.40;2.40;;;;;;;16.28;100.00;100139.41;6276803;28;20055;-73
2023/07/27 12:13:05;;;;;;;4.10;2.03;;;;;;;16.34;100.00;100143.34;6276136;28;20053;-74
2023/07/27 12:16:09;;;;;;;5.05;2.00;;;;;;;16.34;100.00;100146.84;6267125;28;20041;-73
2023/07/27 12:19:10;;;;;;;3.38;2.03;;;;;;;16.32;100.00;100146.13;6256807;28;20045;-73
2023/07/27 12:22:12;;;;;;;3.65;2.10;;;;;;;16.33;100.00;100144.31;6259157;28;20464;-73
2023/07/27 12:25:15;;;;;;;3.50;1.65;;;;;;;16.28;100.00;100141.25;6257349;28;20049;-73
2023/07/27 12:28:17;;;;;;;4.55;2.00;;;;;;;16.32;100.00;100140.00;6256546;28;20037;-73
2023/07/27 12:31:18;;;;;;;2.80;1.73;;;;;;;16.27;100.00;100134.25;6248238;28;20053;-73
2023/07/27 12:34:19;;;;;;;2.67;1.70;;;;;;;16.27;100.00;100131.59;6249933;28;20068;-74
2023/07/27 12:37:21;;;;;;;1.95;1.50;;;;;;;16.37;100.00;100127.19;6254311;28;20051;-73
2023/07/27 12:40:24;;;;;;;3.08;1.80;;;;;;;16.26;100.00;100133.44;6255428;28;20041;-73
2023/07/27 12:43:25;;;;;;;2.72;1.63;;;;;;;16.23;100.00;100123.06;6250955;28;20091;-74
2023/07/27 12:46:27;;;;;;;2.88;1.30;;;;;;;16.27;100.00;100124.50;6257054;28;20073;-73
2023/07/27 12:49:28;;;;;;;1.75;1.40;;;;;;;16.29;100.00;100119.03;6275651;28;20434;-74
2023/07/27 12:52:30;;;;;;;2.15;1.30;;;;;;;16.33;100.00;100117.81;6246782;28;20045;-74
2023/07/27 12:55:32;;;;;;;2.22;1.27;;;;;;;16.39;100.00;100112.78;6256765;28;20052;-75
2023/07/27 12:58:34;;;;;;;1.48;1.10;;;;;;;16.37;100.00;100109.44;6275588;28;20464;-74
2023/07/27 13:01:35;;;;;;;1.63;1.10;;;;;;;16.43;100.00;100108.06;6259530;28;20130;-74
2023/07/27 13:04:37;;;;;;;1.45;1.10;;;;;;;16.44;100.00;100113.25;6249909;28;20054;-75
2023/07/27 13:07:39;;;;;;;1.67;1.25;;;;;;;16.37;100.00;100106.78;6260436;28;20049;-75
2023/07/27 13:10:42;;;;;;;2.22;1.30;;;;;;;16.33;100.00;100109.84;6260831;28;20045;-75
2023/07/27 13:13:44;;;;;;;1.80;1.20;;;;;;;16.34;100.00;100099.09;6266574;28;20338;-75
2023/07/27 13:16:45;;;;;;;1.50;1.05;;;;;;;16.33;100.00;100097.44;6275047;28;20068;-76
2023/07/27 13:19:46;;;;;;;1.20;1.10;;;;;;;16.32;100.00;100100.22;6270664;28;20041;-75
2023/07/27 13:22:48;;;;;;;1.42;0.80;;;;;;;16.37;100.00;100103.31;6274920;28;20052;-75
2023/07/27 13:25:51;;;;;;;1.05;0.98;;;;;;;16.36;100.00;100086.56;6260103;28;20430;-75
2023/07/27 13:28:52;;;;;;;1.17;0.93;;;;;;;16.38;100.00;100095.22;6273985;28;20052;-76
2023/07/27 13:31:53;;;;;;;2.40;1.10;;;;;;;16.41;100.00;100096.75;6275001;28;20056;-76
2023/07/27 13:34:55;;;;;;;1.95;0.98;;;;;;;16.40;100.00;100093.28;6274716;28;20049;-75
2023/07/27 13:37:56;;;;;;;1.85;1.38;;;;;;;16.42;100.00;100099.28;6275087;28;20045;-75
2023/07/27 13:40:59;;;;;;;2.60;1.25;;;;;;;16.43;100.00;100092.16;6274789;28;20056;-75
2023/07/27 13:44:00;;;;;;;1.77;1.15;;;;;;;16.45;100.00;100091.06;6274718;28;20056;-75
2023/07/27 13:47:02;;;;;;;2.20;1.30;;;;;;;16.52;100.00;100094.00;6274606;28;20352;-75
2023/07/27 13:50:03;;;;;;;3.55;1.52;;;;;;;16.54;100.00;100099.19;6274753;28;20365;-75
2023/07/27 13:53:05;;;;;;;1.95;1.20;;;;;;;16.55;100.00;100100.84;6274344;28;20049;-75
2023/07/27 13:56:08;;;;;;;2.45;0.90;;;;;;;16.53;100.00;100093.00;6274703;28;20048;-75
2023/07/27 13:59:09;;;;;;;3.10;1.15;;;;;;;16.55;100.00;100099.03;6274746;28;20056;-76